sensor_id;sensor_type;location;lat;lon;timestamp;P1;durP1;ratioP1;P2;durP2;ratioP2
72649;SDS011;61467;50.674;4.618;2023-04-07T00:00:22;14.33;;;5.13;;
72649;SDS011;61467;50.674;4.618;2023-04-07T00:02:50;13.85;;;5.68;;
72649;SDS011;61467;50.674;4.618;2023-04-07T00:05:17;13.80;;;5.78;;
72649;SDS011;61467;50.674;4.618;2023-04-07T00:07:44;13.63;;;5.63;;
72649;SDS011;61467;50.674;4.618;2023-04-07T00:10:10;12.82;;;5.75;;
72649;SDS011;61467;50.674;4.618;2023-04-07T00:12:39;13.17;;;5.80;;
72649;SDS011;61467;50.674;4.618;2023-04-07T00:15:06;12.35;;;5.30;;
72649;SDS011;61467;50.674;4.618;2023-04-07T00:17:33;13.98;;;5.82;;
72649;SDS011;61467;50.674;4.618;2023-04-07T00:20:00;18.15;;;5.22;;
72649;SDS011;61467;50.674;4.618;2023-04-07T00:22:27;15.07;;;5.75;;
72649;SDS011;61467;50.674;4.618;2023-04-07T00:24:54;13.07;;;4.87;;
72649;SDS011;61467;50.674;4.618;2023-04-07T00:27:20;16.95;;;6.00;;
72649;SDS011;61467;50.674;4.618;2023-04-07T00:29:50;14.02;;;5.07;;
72649;SDS011;61467;50.674;4.618;2023-04-07T00:32:19;17.65;;;5.43;;
72649;SDS011;61467;50.674;4.618;2023-04-07T00:34:46;14.10;;;5.10;;
72649;SDS011;61467;50.674;4.618;2023-04-07T00:37:13;13.87;;;5.50;;
72649;SDS011;61467;50.674;4.618;2023-04-07T00:39:40;16.02;;;5.60;;
72649;SDS011;61467;50.674;4.618;2023-04-07T00:42:07;14.90;;;6.43;;
72649;SDS011;61467;50.674;4.618;2023-04-07T00:44:33;16.50;;;6.07;;
72649;SDS011;61467;50.674;4.618;2023-04-07T00:47:02;17.48;;;7.00;;
72649;SDS011;61467;50.674;4.618;2023-04-07T00:49:29;14.97;;;6.30;;
72649;SDS011;61467;50.674;4.618;2023-04-07T00:51:57;14.90;;;6.15;;
72649;SDS011;61467;50.674;4.618;2023-04-07T00:54:24;15.68;;;6.30;;
72649;SDS011;61467;50.674;4.618;2023-04-07T00:56:51;17.77;;;6.82;;
72649;SDS011;61467;50.674;4.618;2023-04-07T00:59:18;13.30;;;6.43;;
72649;SDS011;61467;50.674;4.618;2023-04-07T01:01:47;13.87;;;6.20;;
72649;SDS011;61467;50.674;4.618;2023-04-07T01:04:25;16.45;;;6.07;;
72649;SDS011;61467;50.674;4.618;2023-04-07T01:06:58;16.13;;;6.88;;
72649;SDS011;61467;50.674;4.618;2023-04-07T01:09:34;15.52;;;6.50;;
72649;SDS011;61467;50.674;4.618;2023-04-07T01:12:04;20.48;;;7.20;;
72649;SDS011;61467;50.674;4.618;2023-04-07T01:14:49;19.60;;;6.87;;
72649;SDS011;61467;50.674;4.618;2023-04-07T01:17:19;21.95;;;7.35;;
72649;SDS011;61467;50.674;4.618;2023-04-07T01:19:52;16.55;;;6.97;;
72649;SDS011;61467;50.674;4.618;2023-04-07T01:22:25;22.73;;;7.00;;
72649;SDS011;61467;50.674;4.618;2023-04-07T01:25:12;18.42;;;7.20;;
72649;SDS011;61467;50.674;4.618;2023-04-07T01:27:53;16.83;;;7.13;;
72649;SDS011;61467;50.674;4.618;2023-04-07T01:30:38;15.93;;;6.82;;
72649;SDS011;61467;50.674;4.618;2023-04-07T01:33:06;17.42;;;7.45;;
72649;SDS011;61467;50.674;4.618;2023-04-07T01:35:35;15.43;;;7.13;;
72649;SDS011;61467;50.674;4.618;2023-04-07T01:38:04;17.15;;;7.60;;
72649;SDS011;61467;50.674;4.618;2023-04-07T01:40:33;15.90;;;7.83;;
72649;SDS011;61467;50.674;4.618;2023-04-07T01:43:02;15.60;;;7.63;;
72649;SDS011;61467;50.674;4.618;2023-04-07T01:45:29;15.77;;;8.00;;
72649;SDS011;61467;50.674;4.618;2023-04-07T01:48:01;16.67;;;7.28;;
72649;SDS011;61467;50.674;4.618;2023-04-07T01:50:30;20.02;;;7.88;;
72649;SDS011;61467;50.674;4.618;2023-04-07T01:52:57;17.63;;;7.77;;
72649;SDS011;61467;50.674;4.618;2023-04-07T01:55:24;17.05;;;7.75;;
72649;SDS011;61467;50.674;4.618;2023-04-07T01:57:52;16.10;;;7.93;;
72649;SDS011;61467;50.674;4.618;2023-04-07T02:00:19;17.88;;;7.78;;
72649;SDS011;61467;50.674;4.618;2023-04-07T02:02:46;18.58;;;8.13;;
72649;SDS011;61467;50.674;4.618;2023-04-07T02:05:19;15.27;;;7.57;;
72649;SDS011;61467;50.674;4.618;2023-04-07T02:07:48;16.70;;;8.10;;
72649;SDS011;61467;50.674;4.618;2023-04-07T02:10:19;18.05;;;7.70;;
72649;SDS011;61467;50.674;4.618;2023-04-07T02:12:49;16.90;;;7.60;;
72649;SDS011;61467;50.674;4.618;2023-04-07T02:15:17;18.17;;;7.50;;
72649;SDS011;61467;50.674;4.618;2023-04-07T02:17:46;16.93;;;7.43;;
72649;SDS011;61467;50.674;4.618;2023-04-07T02:20:15;14.57;;;7.10;;
72649;SDS011;61467;50.674;4.618;2023-04-07T02:22:45;15.10;;;7.57;;
72649;SDS011;61467;50.674;4.618;2023-04-07T02:25:19;17.15;;;7.45;;
72649;SDS011;61467;50.674;4.618;2023-04-07T02:27:47;16.48;;;8.27;;
72649;SDS011;61467;50.674;4.618;2023-04-07T02:30:14;16.03;;;7.83;;
72649;SDS011;61467;50.674;4.618;2023-04-07T02:32:41;19.30;;;8.25;;
72649;SDS011;61467;50.674;4.618;2023-04-07T02:35:09;17.30;;;7.97;;
72649;SDS011;61467;50.674;4.618;2023-04-07T02:37:36;18.77;;;8.25;;
72649;SDS011;61467;50.674;4.618;2023-04-07T02:40:04;21.02;;;8.30;;
72649;SDS011;61467;50.674;4.618;2023-04-07T02:42:32;16.70;;;7.70;;
72649;SDS011;61467;50.674;4.618;2023-04-07T02:45:00;17.10;;;7.68;;
72649;SDS011;61467;50.674;4.618;2023-04-07T02:47:27;20.33;;;8.55;;
72649;SDS011;61467;50.674;4.618;2023-04-07T02:49:54;15.57;;;7.47;;
72649;SDS011;61467;50.674;4.618;2023-04-07T02:52:21;18.50;;;8.57;;
72649;SDS011;61467;50.674;4.618;2023-04-07T02:54:47;16.60;;;7.67;;
72649;SDS011;61467;50.674;4.618;2023-04-07T02:57:16;18.58;;;8.30;;
72649;SDS011;61467;50.674;4.618;2023-04-07T02:59:42;18.42;;;8.27;;
72649;SDS011;61467;50.674;4.618;2023-04-07T03:02:09;19.48;;;8.23;;
72649;SDS011;61467;50.674;4.618;2023-04-07T03:04:36;21.80;;;8.98;;
72649;SDS011;61467;50.674;4.618;2023-04-07T03:07:03;18.60;;;9.17;;
72649;SDS011;61467;50.674;4.618;2023-04-07T03:09:30;20.55;;;8.88;;
72649;SDS011;61467;50.674;4.618;2023-04-07T03:11:56;16.88;;;8.65;;
72649;SDS011;61467;50.674;4.618;2023-04-07T03:14:25;22.58;;;9.43;;
72649;SDS011;61467;50.674;4.618;2023-04-07T03:16:52;20.20;;;8.65;;
72649;SDS011;61467;50.674;4.618;2023-04-07T03:19:18;20.17;;;8.10;;
72649;SDS011;61467;50.674;4.618;2023-04-07T03:21:45;18.60;;;8.20;;
72649;SDS011;61467;50.674;4.618;2023-04-07T03:24:12;16.30;;;8.35;;
72649;SDS011;61467;50.674;4.618;2023-04-07T03:26:39;21.95;;;8.27;;
72649;SDS011;61467;50.674;4.618;2023-04-07T03:29:06;18.85;;;8.38;;
72649;SDS011;61467;50.674;4.618;2023-04-07T03:31:34;17.50;;;8.57;;
72649;SDS011;61467;50.674;4.618;2023-04-07T03:34:01;16.48;;;8.13;;
72649;SDS011;61467;50.674;4.618;2023-04-07T03:36:28;20.40;;;9.60;;
72649;SDS011;61467;50.674;4.618;2023-04-07T03:38:55;17.75;;;7.90;;
72649;SDS011;61467;50.674;4.618;2023-04-07T03:41:22;19.00;;;8.40;;
72649;SDS011;61467;50.674;4.618;2023-04-07T03:43:49;18.93;;;7.83;;
72649;SDS011;61467;50.674;4.618;2023-04-07T03:46:17;18.42;;;7.55;;
72649;SDS011;61467;50.674;4.618;2023-04-07T03:48:46;17.00;;;8.15;;
72649;SDS011;61467;50.674;4.618;2023-04-07T03:51:13;16.23;;;7.55;;
72649;SDS011;61467;50.674;4.618;2023-04-07T03:53:40;16.35;;;7.43;;
72649;SDS011;61467;50.674;4.618;2023-04-07T03:56:06;17.20;;;7.17;;
72649;SDS011;61467;50.674;4.618;2023-04-07T03:58:33;17.58;;;8.27;;
72649;SDS011;61467;50.674;4.618;2023-04-07T04:01:00;15.70;;;7.50;;
72649;SDS011;61467;50.674;4.618;2023-04-07T04:03:28;16.05;;;7.93;;
72649;SDS011;61467;50.674;4.618;2023-04-07T04:05:56;16.95;;;7.97;;
72649;SDS011;61467;50.674;4.618;2023-04-07T04:08:23;16.40;;;7.53;;
72649;SDS011;61467;50.674;4.618;2023-04-07T04:10:49;17.83;;;7.13;;
72649;SDS011;61467;50.674;4.618;2023-04-07T04:13:17;16.75;;;7.85;;
72649;SDS011;61467;50.674;4.618;2023-04-07T04:15:43;16.25;;;8.38;;
72649;SDS011;61467;50.674;4.618;2023-04-07T04:18:10;14.55;;;7.50;;
72649;SDS011;61467;50.674;4.618;2023-04-07T04:20:37;16.97;;;7.57;;
72649;SDS011;61467;50.674;4.618;2023-04-07T04:23:06;15.80;;;7.85;;
72649;SDS011;61467;50.674;4.618;2023-04-07T04:25:33;15.85;;;7.72;;
72649;SDS011;61467;50.674;4.618;2023-04-07T04:28:00;16.73;;;7.78;;
72649;SDS011;61467;50.674;4.618;2023-04-07T04:30:26;19.35;;;9.07;;
72649;SDS011;61467;50.674;4.618;2023-04-07T04:32:53;16.83;;;7.90;;
72649;SDS011;61467;50.674;4.618;2023-04-07T04:35:20;19.48;;;8.25;;
72649;SDS011;61467;50.674;4.618;2023-04-07T04:37:47;15.73;;;8.20;;
72649;SDS011;61467;50.674;4.618;2023-04-07T04:40:15;19.52;;;8.77;;
72649;SDS011;61467;50.674;4.618;2023-04-07T04:42:42;19.65;;;8.13;;
72649;SDS011;61467;50.674;4.618;2023-04-07T04:45:09;17.80;;;8.20;;
72649;SDS011;61467;50.674;4.618;2023-04-07T04:47:36;18.13;;;8.63;;
72649;SDS011;61467;50.674;4.618;2023-04-07T04:50:03;20.67;;;8.50;;
72649;SDS011;61467;50.674;4.618;2023-04-07T04:52:31;18.02;;;8.25;;
72649;SDS011;61467;50.674;4.618;2023-04-07T04:54:58;18.85;;;8.35;;
72649;SDS011;61467;50.674;4.618;2023-04-07T04:57:26;19.43;;;8.47;;
72649;SDS011;61467;50.674;4.618;2023-04-07T04:59:53;18.77;;;8.10;;
72649;SDS011;61467;50.674;4.618;2023-04-07T05:02:20;18.48;;;8.68;;
72649;SDS011;61467;50.674;4.618;2023-04-07T05:04:47;14.50;;;6.38;;
72649;SDS011;61467;50.674;4.618;2023-04-07T05:07:13;16.65;;;8.65;;
72649;SDS011;61467;50.674;4.618;2023-04-07T05:09:40;16.80;;;7.50;;
72649;SDS011;61467;50.674;4.618;2023-04-07T05:12:07;21.15;;;8.27;;
72649;SDS011;61467;50.674;4.618;2023-04-07T05:14:35;16.55;;;8.60;;
72649;SDS011;61467;50.674;4.618;2023-04-07T05:17:02;17.05;;;8.25;;
72649;SDS011;61467;50.674;4.618;2023-04-07T05:19:29;18.52;;;8.60;;
72649;SDS011;61467;50.674;4.618;2023-04-07T05:21:56;21.13;;;8.57;;
72649;SDS011;61467;50.674;4.618;2023-04-07T05:24:24;20.83;;;8.77;;
72649;SDS011;61467;50.674;4.618;2023-04-07T05:26:52;18.17;;;8.45;;
72649;SDS011;61467;50.674;4.618;2023-04-07T05:29:19;20.75;;;8.50;;
72649;SDS011;61467;50.674;4.618;2023-04-07T05:31:47;22.15;;;9.95;;
72649;SDS011;61467;50.674;4.618;2023-04-07T05:34:14;22.70;;;9.03;;
72649;SDS011;61467;50.674;4.618;2023-04-07T05:36:40;20.92;;;8.57;;
72649;SDS011;61467;50.674;4.618;2023-04-07T05:39:08;21.42;;;9.85;;
72649;SDS011;61467;50.674;4.618;2023-04-07T05:41:35;20.90;;;8.52;;
72649;SDS011;61467;50.674;4.618;2023-04-07T05:44:02;27.02;;;10.10;;
72649;SDS011;61467;50.674;4.618;2023-04-07T05:46:30;19.60;;;8.73;;
72649;SDS011;61467;50.674;4.618;2023-04-07T05:48:58;23.08;;;8.95;;
72649;SDS011;61467;50.674;4.618;2023-04-07T05:51:25;20.63;;;9.07;;
72649;SDS011;61467;50.674;4.618;2023-04-07T05:53:52;25.95;;;8.85;;
72649;SDS011;61467;50.674;4.618;2023-04-07T05:56:18;22.45;;;9.50;;
72649;SDS011;61467;50.674;4.618;2023-04-07T05:58:45;24.70;;;9.67;;
72649;SDS011;61467;50.674;4.618;2023-04-07T06:01:12;22.88;;;9.73;;
72649;SDS011;61467;50.674;4.618;2023-04-07T06:03:39;26.05;;;9.65;;
72649;SDS011;61467;50.674;4.618;2023-04-07T06:06:07;24.40;;;10.15;;
72649;SDS011;61467;50.674;4.618;2023-04-07T06:08:35;21.17;;;9.75;;
72649;SDS011;61467;50.674;4.618;2023-04-07T06:11:03;26.27;;;9.50;;
72649;SDS011;61467;50.674;4.618;2023-04-07T06:13:31;23.33;;;10.05;;
72649;SDS011;61467;50.674;4.618;2023-04-07T06:15:58;25.63;;;9.60;;
72649;SDS011;61467;50.674;4.618;2023-04-07T06:18:25;22.98;;;9.93;;
72649;SDS011;61467;50.674;4.618;2023-04-07T06:20:52;23.70;;;9.80;;
72649;SDS011;61467;50.674;4.618;2023-04-07T06:23:20;27.03;;;10.60;;
72649;SDS011;61467;50.674;4.618;2023-04-07T06:25:47;24.70;;;10.30;;
72649;SDS011;61467;50.674;4.618;2023-04-07T06:28:16;24.48;;;9.75;;
72649;SDS011;61467;50.674;4.618;2023-04-07T06:30:43;23.00;;;8.60;;
72649;SDS011;61467;50.674;4.618;2023-04-07T06:33:10;23.80;;;8.90;;
72649;SDS011;61467;50.674;4.618;2023-04-07T06:35:38;24.10;;;9.37;;
72649;SDS011;61467;50.674;4.618;2023-04-07T06:38:05;23.75;;;10.23;;
72649;SDS011;61467;50.674;4.618;2023-04-07T06:40:34;26.95;;;9.93;;
72649;SDS011;61467;50.674;4.618;2023-04-07T06:43:00;22.27;;;9.68;;
72649;SDS011;61467;50.674;4.618;2023-04-07T06:45:28;26.50;;;9.45;;
72649;SDS011;61467;50.674;4.618;2023-04-07T06:47:55;24.77;;;9.33;;
72649;SDS011;61467;50.674;4.618;2023-04-07T06:50:21;28.98;;;9.45;;
72649;SDS011;61467;50.674;4.618;2023-04-07T06:52:48;26.02;;;10.23;;
72649;SDS011;61467;50.674;4.618;2023-04-07T06:55:15;23.25;;;9.85;;
72649;SDS011;61467;50.674;4.618;2023-04-07T06:57:43;22.90;;;10.10;;
72649;SDS011;61467;50.674;4.618;2023-04-07T07:00:10;30.03;;;10.53;;
72649;SDS011;61467;50.674;4.618;2023-04-07T07:02:37;24.75;;;9.85;;
72649;SDS011;61467;50.674;4.618;2023-04-07T07:05:04;28.95;;;10.30;;
72649;SDS011;61467;50.674;4.618;2023-04-07T07:07:32;28.15;;;10.27;;
72649;SDS011;61467;50.674;4.618;2023-04-07T07:09:59;26.17;;;9.85;;
72649;SDS011;61467;50.674;4.618;2023-04-07T07:12:26;25.77;;;10.23;;
72649;SDS011;61467;50.674;4.618;2023-04-07T07:14:54;25.63;;;10.80;;
72649;SDS011;61467;50.674;4.618;2023-04-07T07:17:21;25.25;;;10.18;;
72649;SDS011;61467;50.674;4.618;2023-04-07T07:19:47;21.00;;;9.82;;
72649;SDS011;61467;50.674;4.618;2023-04-07T07:22:14;22.05;;;8.80;;
72649;SDS011;61467;50.674;4.618;2023-04-07T07:24:41;22.23;;;9.07;;
72649;SDS011;61467;50.674;4.618;2023-04-07T07:27:08;23.52;;;9.23;;
72649;SDS011;61467;50.674;4.618;2023-04-07T07:29:35;19.52;;;9.02;;
72649;SDS011;61467;50.674;4.618;2023-04-07T07:32:03;21.55;;;8.30;;
72649;SDS011;61467;50.674;4.618;2023-04-07T07:34:30;24.77;;;8.48;;
72649;SDS011;61467;50.674;4.618;2023-04-07T07:36:58;19.80;;;8.80;;
72649;SDS011;61467;50.674;4.618;2023-04-07T07:39:25;22.48;;;9.15;;
72649;SDS011;61467;50.674;4.618;2023-04-07T07:41:52;22.10;;;9.93;;
72649;SDS011;61467;50.674;4.618;2023-04-07T07:44:19;18.00;;;8.75;;
72649;SDS011;61467;50.674;4.618;2023-04-07T07:46:46;19.05;;;7.97;;
72649;SDS011;61467;50.674;4.618;2023-04-07T07:49:15;21.97;;;7.77;;
72649;SDS011;61467;50.674;4.618;2023-04-07T07:51:42;18.40;;;7.78;;
72649;SDS011;61467;50.674;4.618;2023-04-07T07:54:10;19.10;;;7.22;;
72649;SDS011;61467;50.674;4.618;2023-04-07T07:56:37;20.50;;;7.32;;
72649;SDS011;61467;50.674;4.618;2023-04-07T07:59:04;18.48;;;6.20;;
72649;SDS011;61467;50.674;4.618;2023-04-07T08:01:31;17.50;;;7.00;;
72649;SDS011;61467;50.674;4.618;2023-04-07T08:03:58;19.05;;;7.05;;
72649;SDS011;61467;50.674;4.618;2023-04-07T08:06:26;18.38;;;7.03;;
72649;SDS011;61467;50.674;4.618;2023-04-07T08:08:55;14.77;;;6.63;;
72649;SDS011;61467;50.674;4.618;2023-04-07T08:11:23;16.52;;;6.85;;
72649;SDS011;61467;50.674;4.618;2023-04-07T08:13:49;15.10;;;6.90;;
72649;SDS011;61467;50.674;4.618;2023-04-07T08:16:18;14.15;;;6.72;;
72649;SDS011;61467;50.674;4.618;2023-04-07T08:18:46;15.80;;;6.20;;
72649;SDS011;61467;50.674;4.618;2023-04-07T08:21:13;14.15;;;6.43;;
72649;SDS011;61467;50.674;4.618;2023-04-07T08:23:41;15.65;;;6.78;;
72649;SDS011;61467;50.674;4.618;2023-04-07T08:26:08;16.10;;;6.83;;
72649;SDS011;61467;50.674;4.618;2023-04-07T08:28:35;14.18;;;6.53;;
72649;SDS011;61467;50.674;4.618;2023-04-07T08:31:01;15.27;;;6.88;;
72649;SDS011;61467;50.674;4.618;2023-04-07T08:33:28;13.77;;;6.90;;
72649;SDS011;61467;50.674;4.618;2023-04-07T08:35:55;13.23;;;6.32;;
72649;SDS011;61467;50.674;4.618;2023-04-07T08:38:22;18.63;;;7.03;;
72649;SDS011;61467;50.674;4.618;2023-04-07T08:40:54;17.23;;;6.80;;
72649;SDS011;61467;50.674;4.618;2023-04-07T08:43:26;15.93;;;7.05;;
72649;SDS011;61467;50.674;4.618;2023-04-07T08:45:55;14.15;;;7.30;;
72649;SDS011;61467;50.674;4.618;2023-04-07T08:48:23;14.48;;;7.57;;
72649;SDS011;61467;50.674;4.618;2023-04-07T08:50:52;12.97;;;6.97;;
72649;SDS011;61467;50.674;4.618;2023-04-07T08:53:22;17.55;;;8.30;;
72649;SDS011;61467;50.674;4.618;2023-04-07T08:55:53;18.25;;;8.35;;
72649;SDS011;61467;50.674;4.618;2023-04-07T08:58:21;17.00;;;8.88;;
72649;SDS011;61467;50.674;4.618;2023-04-07T09:00:48;17.02;;;8.48;;
72649;SDS011;61467;50.674;4.618;2023-04-07T09:03:16;15.40;;;7.87;;
72649;SDS011;61467;50.674;4.618;2023-04-07T09:05:44;15.20;;;6.85;;
72649;SDS011;61467;50.674;4.618;2023-04-07T09:08:12;13.93;;;7.38;;
72649;SDS011;61467;50.674;4.618;2023-04-07T09:10:38;15.23;;;6.38;;
72649;SDS011;61467;50.674;4.618;2023-04-07T09:13:07;14.85;;;6.00;;
72649;SDS011;61467;50.674;4.618;2023-04-07T09:15:34;11.57;;;5.23;;
72649;SDS011;61467;50.674;4.618;2023-04-07T09:18:00;12.13;;;5.35;;
72649;SDS011;61467;50.674;4.618;2023-04-07T09:20:28;11.02;;;5.10;;
72649;SDS011;61467;50.674;4.618;2023-04-07T09:23:28;12.43;;;4.95;;
72649;SDS011;61467;50.674;4.618;2023-04-07T09:25:56;9.77;;;5.20;;
72649;SDS011;61467;50.674;4.618;2023-04-07T09:28:38;12.13;;;5.10;;
72649;SDS011;61467;50.674;4.618;2023-04-07T09:31:06;13.70;;;5.22;;
72649;SDS011;61467;50.674;4.618;2023-04-07T09:33:33;12.27;;;5.25;;
72649;SDS011;61467;50.674;4.618;2023-04-07T09:36:01;13.63;;;5.00;;
72649;SDS011;61467;50.674;4.618;2023-04-07T09:38:31;12.07;;;5.05;;
72649;SDS011;61467;50.674;4.618;2023-04-07T09:41:08;9.43;;;4.73;;
72649;SDS011;61467;50.674;4.618;2023-04-07T09:43:38;10.98;;;4.57;;
72649;SDS011;61467;50.674;4.618;2023-04-07T09:46:07;9.60;;;4.15;;
72649;SDS011;61467;50.674;4.618;2023-04-07T09:48:39;10.63;;;4.70;;
72649;SDS011;61467;50.674;4.618;2023-04-07T09:51:07;10.95;;;4.60;;
72649;SDS011;61467;50.674;4.618;2023-04-07T09:53:42;8.27;;;3.60;;
72649;SDS011;61467;50.674;4.618;2023-04-07T09:56:12;11.68;;;4.65;;
72649;SDS011;61467;50.674;4.618;2023-04-07T09:58:51;8.90;;;4.05;;
72649;SDS011;61467;50.674;4.618;2023-04-07T10:01:18;11.45;;;4.30;;
72649;SDS011;61467;50.674;4.618;2023-04-07T10:03:47;9.93;;;3.42;;
72649;SDS011;61467;50.674;4.618;2023-04-07T10:06:15;8.03;;;3.30;;
72649;SDS011;61467;50.674;4.618;2023-04-07T10:08:42;9.40;;;3.13;;
72649;SDS011;61467;50.674;4.618;2023-04-07T10:11:11;7.25;;;2.90;;
72649;SDS011;61467;50.674;4.618;2023-04-07T10:13:39;7.50;;;3.00;;
72649;SDS011;61467;50.674;4.618;2023-04-07T10:16:09;8.32;;;2.78;;
72649;SDS011;61467;50.674;4.618;2023-04-07T10:18:36;6.43;;;2.63;;
72649;SDS011;61467;50.674;4.618;2023-04-07T10:21:05;8.07;;;2.42;;
72649;SDS011;61467;50.674;4.618;2023-04-07T10:23:43;8.02;;;2.88;;
72649;SDS011;61467;50.674;4.618;2023-04-07T10:26:14;7.85;;;2.47;;
72649;SDS011;61467;50.674;4.618;2023-04-07T10:28:45;7.95;;;2.80;;
72649;SDS011;61467;50.674;4.618;2023-04-07T10:31:16;6.13;;;2.57;;
72649;SDS011;61467;50.674;4.618;2023-04-07T10:33:48;8.43;;;2.60;;
72649;SDS011;61467;50.674;4.618;2023-04-07T10:36:16;9.18;;;3.03;;
72649;SDS011;61467;50.674;4.618;2023-04-07T10:41:43;7.47;;;2.22;;
72649;SDS011;61467;50.674;4.618;2023-04-07T10:44:43;7.60;;;2.07;;
72649;SDS011;61467;50.674;4.618;2023-04-07T10:47:10;7.60;;;2.42;;
72649;SDS011;61467;50.674;4.618;2023-04-07T10:49:38;7.05;;;2.40;;
72649;SDS011;61467;50.674;4.618;2023-04-07T10:52:22;8.52;;;2.65;;
72649;SDS011;61467;50.674;4.618;2023-04-07T11:00:42;7.03;;;2.70;;
72649;SDS011;61467;50.674;4.618;2023-04-07T11:03:51;8.90;;;2.70;;
72649;SDS011;61467;50.674;4.618;2023-04-07T11:06:19;5.22;;;2.30;;
72649;SDS011;61467;50.674;4.618;2023-04-07T11:08:47;6.55;;;2.55;;
72649;SDS011;61467;50.674;4.618;2023-04-07T11:11:15;7.97;;;2.37;;
72649;SDS011;61467;50.674;4.618;2023-04-07T11:13:42;5.93;;;2.28;;
72649;SDS011;61467;50.674;4.618;2023-04-07T11:16:12;7.20;;;2.58;;
72649;SDS011;61467;50.674;4.618;2023-04-07T11:18:39;9.45;;;2.40;;
72649;SDS011;61467;50.674;4.618;2023-04-07T11:21:07;5.90;;;2.03;;
72649;SDS011;61467;50.674;4.618;2023-04-07T11:23:37;6.20;;;1.80;;
72649;SDS011;61467;50.674;4.618;2023-04-07T11:26:05;6.18;;;1.95;;
72649;SDS011;61467;50.674;4.618;2023-04-07T11:28:32;8.43;;;2.00;;
72649;SDS011;61467;50.674;4.618;2023-04-07T11:31:00;7.05;;;2.17;;
72649;SDS011;61467;50.674;4.618;2023-04-07T11:33:29;6.50;;;1.90;;
72649;SDS011;61467;50.674;4.618;2023-04-07T11:35:59;7.03;;;2.10;;
72649;SDS011;61467;50.674;4.618;2023-04-07T11:38:27;6.50;;;1.70;;
72649;SDS011;61467;50.674;4.618;2023-04-07T11:40:55;6.28;;;1.48;;
72649;SDS011;61467;50.674;4.618;2023-04-07T11:43:23;5.45;;;1.67;;
72649;SDS011;61467;50.674;4.618;2023-04-07T11:46:04;6.72;;;1.67;;
72649;SDS011;61467;50.674;4.618;2023-04-07T11:48:33;5.90;;;1.67;;
72649;SDS011;61467;50.674;4.618;2023-04-07T11:51:01;6.45;;;1.67;;
72649;SDS011;61467;50.674;4.618;2023-04-07T11:53:29;7.00;;;1.58;;
72649;SDS011;61467;50.674;4.618;2023-04-07T11:56:00;6.70;;;1.65;;
72649;SDS011;61467;50.674;4.618;2023-04-07T11:58:28;6.10;;;2.20;;
72649;SDS011;61467;50.674;4.618;2023-04-07T12:00:55;6.93;;;1.60;;
72649;SDS011;61467;50.674;4.618;2023-04-07T12:03:23;4.72;;;1.85;;
72649;SDS011;61467;50.674;4.618;2023-04-07T12:05:51;6.25;;;1.75;;
72649;SDS011;61467;50.674;4.618;2023-04-07T12:08:18;5.82;;;1.30;;
72649;SDS011;61467;50.674;4.618;2023-04-07T12:10:45;5.80;;;1.38;;
72649;SDS011;61467;50.674;4.618;2023-04-07T12:13:12;4.27;;;1.33;;
72649;SDS011;61467;50.674;4.618;2023-04-07T12:15:39;4.90;;;1.40;;
72649;SDS011;61467;50.674;4.618;2023-04-07T12:18:06;6.43;;;1.65;;
72649;SDS011;61467;50.674;4.618;2023-04-07T12:20:33;9.13;;;1.80;;
72649;SDS011;61467;50.674;4.618;2023-04-07T12:23:02;5.95;;;1.33;;
72649;SDS011;61467;50.674;4.618;2023-04-07T12:25:29;4.97;;;1.40;;
72649;SDS011;61467;50.674;4.618;2023-04-07T12:27:56;6.15;;;1.63;;
72649;SDS011;61467;50.674;4.618;2023-04-07T12:30:23;5.68;;;1.33;;
72649;SDS011;61467;50.674;4.618;2023-04-07T12:32:49;4.80;;;1.25;;
72649;SDS011;61467;50.674;4.618;2023-04-07T12:35:16;6.53;;;1.73;;
72649;SDS011;61467;50.674;4.618;2023-04-07T12:37:43;6.17;;;1.83;;
72649;SDS011;61467;50.674;4.618;2023-04-07T12:40:12;7.03;;;1.70;;
72649;SDS011;61467;50.674;4.618;2023-04-07T12:42:40;6.57;;;1.55;;
72649;SDS011;61467;50.674;4.618;2023-04-07T12:45:07;7.75;;;1.80;;
72649;SDS011;61467;50.674;4.618;2023-04-07T12:47:34;7.78;;;1.58;;
72649;SDS011;61467;50.674;4.618;2023-04-07T12:50:01;4.70;;;1.23;;
72649;SDS011;61467;50.674;4.618;2023-04-07T12:52:28;5.32;;;1.20;;
72649;SDS011;61467;50.674;4.618;2023-04-07T12:54:55;4.05;;;1.10;;
72649;SDS011;61467;50.674;4.618;2023-04-07T12:57:24;4.93;;;1.20;;
72649;SDS011;61467;50.674;4.618;2023-04-07T12:59:51;4.57;;;1.17;;
72649;SDS011;61467;50.674;4.618;2023-04-07T13:02:18;5.13;;;1.10;;
72649;SDS011;61467;50.674;4.618;2023-04-07T13:04:45;4.93;;;1.50;;
72649;SDS011;61467;50.674;4.618;2023-04-07T13:07:12;6.28;;;1.88;;
72649;SDS011;61467;50.674;4.618;2023-04-07T13:09:39;4.78;;;1.50;;
72649;SDS011;61467;50.674;4.618;2023-04-07T13:12:07;5.93;;;1.80;;
72649;SDS011;61467;50.674;4.618;2023-04-07T13:14:36;6.73;;;1.27;;
72649;SDS011;61467;50.674;4.618;2023-04-07T13:17:03;8.27;;;1.70;;
72649;SDS011;61467;50.674;4.618;2023-04-07T13:19:30;6.45;;;2.08;;
72649;SDS011;61467;50.674;4.618;2023-04-07T13:21:57;6.05;;;1.70;;
72649;SDS011;61467;50.674;4.618;2023-04-07T13:24:24;7.10;;;1.65;;
72649;SDS011;61467;50.674;4.618;2023-04-07T13:26:51;7.53;;;1.50;;
72649;SDS011;61467;50.674;4.618;2023-04-07T13:29:18;4.63;;;1.55;;
72649;SDS011;61467;50.674;4.618;2023-04-07T13:31:46;4.72;;;1.42;;
72649;SDS011;61467;50.674;4.618;2023-04-07T13:34:14;6.15;;;1.50;;
72649;SDS011;61467;50.674;4.618;2023-04-07T13:36:41;10.52;;;2.00;;
72649;SDS011;61467;50.674;4.618;2023-04-07T13:39:08;5.50;;;1.37;;
72649;SDS011;61467;50.674;4.618;2023-04-07T13:41:34;5.82;;;1.20;;
72649;SDS011;61467;50.674;4.618;2023-04-07T13:44:01;7.47;;;1.55;;
72649;SDS011;61467;50.674;4.618;2023-04-07T13:46:28;6.53;;;1.30;;
72649;SDS011;61467;50.674;4.618;2023-04-07T13:48:56;5.55;;;1.30;;
72649;SDS011;61467;50.674;4.618;2023-04-07T13:51:25;4.37;;;1.30;;
72649;SDS011;61467;50.674;4.618;2023-04-07T13:53:52;6.00;;;1.48;;
72649;SDS011;61467;50.674;4.618;2023-04-07T13:56:18;8.95;;;1.70;;
72649;SDS011;61467;50.674;4.618;2023-04-07T13:58:46;7.18;;;1.85;;
72649;SDS011;61467;50.674;4.618;2023-04-07T14:01:13;7.72;;;1.88;;
72649;SDS011;61467;50.674;4.618;2023-04-07T14:03:40;7.37;;;1.97;;
72649;SDS011;61467;50.674;4.618;2023-04-07T14:06:08;8.18;;;1.60;;
72649;SDS011;61467;50.674;4.618;2023-04-07T14:08:35;6.55;;;1.60;;
72649;SDS011;61467;50.674;4.618;2023-04-07T14:11:02;6.55;;;1.60;;
72649;SDS011;61467;50.674;4.618;2023-04-07T14:13:29;6.88;;;1.65;;
72649;SDS011;61467;50.674;4.618;2023-04-07T14:15:55;6.03;;;1.30;;
72649;SDS011;61467;50.674;4.618;2023-04-07T14:18:22;7.05;;;1.58;;
72649;SDS011;61467;50.674;4.618;2023-04-07T14:20:52;7.22;;;1.58;;
72649;SDS011;61467;50.674;4.618;2023-04-07T14:23:20;6.05;;;1.70;;
72649;SDS011;61467;50.674;4.618;2023-04-07T14:25:47;5.50;;;1.50;;
72649;SDS011;61467;50.674;4.618;2023-04-07T14:28:13;8.37;;;1.97;;
72649;SDS011;61467;50.674;4.618;2023-04-07T14:30:40;9.65;;;2.05;;
72649;SDS011;61467;50.674;4.618;2023-04-07T14:33:07;7.22;;;1.70;;
72649;SDS011;61467;50.674;4.618;2023-04-07T14:35:35;6.60;;;1.50;;
72649;SDS011;61467;50.674;4.618;2023-04-07T14:38:02;5.18;;;1.70;;
72649;SDS011;61467;50.674;4.618;2023-04-07T14:40:31;5.57;;;1.63;;
72649;SDS011;61467;50.674;4.618;2023-04-07T14:42:57;6.63;;;1.63;;
72649;SDS011;61467;50.674;4.618;2023-04-07T14:45:25;6.88;;;1.88;;
72649;SDS011;61467;50.674;4.618;2023-04-07T14:47:52;10.00;;;1.80;;
72649;SDS011;61467;50.674;4.618;2023-04-07T14:50:19;6.47;;;1.70;;
72649;SDS011;61467;50.674;4.618;2023-04-07T14:52:46;7.37;;;1.70;;